Airfield :
LOGIN :

Register | Disclaimer

   EN    FR    IT 

 










Legend :    VFR   Marginal VFR   IFR   Intensive IFR   Very Intensive IFR
Visi :
Ceiling :
>= 8 km
>= 3000ft
5 to 8 km
1000 to 3000 ft
1500m to 5 km
500 to 1000 ft
800 to 1500m
200 to 500 ft
< 800m
< 200 ft
Symbols :   Thunderstorms  Fog  Heavy snow  Heavy precipitations  Wind > 20 kt
SIGMETs :     Misc.  Thunderstorms  Icing  Turbulence  Mountain Waves  Volcanic Ashes






- Airport Elevation : 42 ft
- IATA code : LMO


EGQS - Lossiemouth

CURRENT METAR :
  • 271420Z 12008KT 9999 FEW030 BKN100 10/05 Q0984 NOSIG RMK BLU BLU

EXPIRED METARs :
  • 271350Z 13008KT 9999 FEW030 BKN100 10/05 Q0984 NOSIG RMK BLU BLU
  • 271320Z 16008KT CAVOK 10/05 Q0985 NOSIG RMK BLU BLU
  • 271250Z 11006KT 9999 FEW030 SCT130 BKN190 10/05 Q0985 NOSIG RMK BLU BLU
  • 271219Z 13008KT 9999 FEW030 SCT150 BKN220 10/04 Q0986 NOSIG RMK BLU BLU
  • 271150Z 14006KT 9999 FEW030 SCT160 BKN230 10/05 Q0986 NOSIG RMK BLU BLU

TAF TAF EGQS
Valid from the 27 at 15:00 until the 28 at 09:00 UTC


271336Z 2715/2809 16010KT 9999 SCT030
TEMPO 2716/2724 7000 -RA SCT022
PROB40
TEMPO 2717/2723 4000 RA SCT012 BKN018
PROB30
TEMPO 2718/2721 3000 RADZ SCT006



MET'MAP, your aeronautical weather chart ! - Copyright ORBIFLY December 2007 - Disclaimer

ORBIFLY MET'MAP TEAM :

Programming & Development : Alexandra Zaïnal
Concept & original design : Baudouin d'Aumeries
Assistance for programming : Marc-Olivier Méhu
Technical & hardware support : Manuel Goepfert

Contact : metmap@orbifly.com




SOURCES & CREDITS :

   NOAA